Time;durP1;ratioP1;P1;durP2;ratioP2;P2;SDS_P1;SDS_P2;PMS_P1;PMS_P2;Temp;Humidity;BMP_temperature;BMP_pressure;BME280_temperature;BME280_humidity;BME280_pressure;Samples;Min_cycle;Max_cycle;Signal;HPM_P1;HPM_P2
2024/01/04 00:01:11;;;;;;;;;;;7.70;99.90;;;;;;5117905;28;19919;-70
2024/01/04 00:03:38;;;;;;;;;;;7.60;99.90;;;;;;5127331;27;20336;-70
2024/01/04 00:06:06;;;;;;;;;;;7.60;99.90;;;;;;5129187;27;19919;-70
2024/01/04 00:08:32;;;;;;;;;;;7.50;99.90;;;;;;5124656;27;19987;-69
2024/01/04 00:11:01;;;;;;;;;;;7.40;99.90;;;;;;5132477;27;19919;-70
2024/01/04 00:13:28;;;;;;;;;;;7.30;99.90;;;;;;5131439;27;19962;-70
2024/01/04 00:15:55;;;;;;;;;;;7.30;99.90;;;;;;5127662;27;19920;-70
2024/01/04 00:18:21;;;;;;;;;;;7.20;99.90;;;;;;5120810;28;19998;-70
2024/01/04 00:20:48;;;;;;;;;;;7.20;99.90;;;;;;5123476;28;19983;-70
2024/01/04 00:23:16;;;;;;;;;;;7.10;99.90;;;;;;5123282;28;19982;-70
2024/01/04 00:25:43;;;;;;;;;;;7.10;99.90;;;;;;5123193;28;19928;-70
2024/01/04 00:28:09;;;;;;;;;;;7.10;99.90;;;;;;5125191;27;20177;-70
2024/01/04 00:30:36;;;;;;;;;;;7.00;99.90;;;;;;5119120;28;19979;-70
2024/01/04 00:33:03;;;;;;;;;;;7.00;99.90;;;;;;5123436;28;19990;-70
2024/01/04 00:35:29;;;;;;;;;;;7.00;99.90;;;;;;5123589;28;19979;-70
2024/01/04 00:37:57;;;;;;;;;;;7.00;99.90;;;;;;5127150;27;19928;-70
2024/01/04 00:40:25;;;;;;;;;;;6.90;99.90;;;;;;5123580;28;19985;-70
2024/01/04 00:42:52;;;;;;;;;;;6.90;99.90;;;;;;5119251;28;19959;-70
2024/01/04 00:45:18;;;;;;;;;;;7.00;99.90;;;;;;5122950;28;19920;-70
2024/01/04 00:47:45;;;;;;;;;;;6.90;99.90;;;;;;5122991;28;20146;-70
2024/01/04 00:50:12;;;;;;;;;;;7.00;99.90;;;;;;5119070;28;19979;-70
2024/01/04 00:52:38;;;;;;;;;;;7.00;99.90;;;;;;5122924;28;19955;-70
2024/01/04 00:55:05;;;;;;;;;;;7.10;99.90;;;;;;5122710;28;20164;-69
2024/01/04 00:57:33;;;;;;;;;;;7.10;99.90;;;;;;5120291;28;19919;-69
2024/01/04 01:00:00;;;;;;;;;;;7.10;99.90;;;;;;5117101;28;19955;-70
2024/01/04 01:02:27;;;;;;;;;;;7.10;99.90;;;;;;5123047;28;20113;-70
2024/01/04 01:04:53;;;;;;;;;;;7.20;99.90;;;;;;5122361;28;19975;-70
2024/01/04 01:07:20;;;;;;;;;;;7.20;99.90;;;;;;5122928;28;19959;-70
2024/01/04 01:09:46;;;;;;;;;;;7.20;99.90;;;;;;5127007;28;19920;-70
2024/01/04 01:12:13;;;;;;;;;;;7.20;99.90;;;;;;5122369;28;19962;-70
2024/01/04 01:14:41;;;;;;;;;;;7.20;99.90;;;;;;5117223;28;20399;-70
2024/01/04 01:17:08;;;;;;;;;;;7.20;99.90;;;;;;5122883;28;19955;-69
2024/01/04 01:19:35;;;;;;;;;;;7.20;99.90;;;;;;5122626;28;19983;-70
2024/01/04 01:22:02;;;;;;;;;;;7.20;99.90;;;;;;5118900;28;19930;-70
2024/01/04 01:24:28;;;;;;;;;;;7.20;99.90;;;;;;5122770;28;19934;-70
2024/01/04 01:26:55;;;;;;;;;;;7.20;99.90;;;;;;5122640;28;20023;-70
2024/01/04 01:29:22;;;;;;;;;;;7.20;99.90;;;;;;5117922;28;19987;-70
2024/01/04 01:31:49;;;;;;;;;;;7.20;99.90;;;;;;5122977;28;19919;-71
2024/01/04 01:34:16;;;;;;;;;;;7.20;99.90;;;;;;5116856;28;19979;-70
2024/01/04 01:36:43;;;;;;;;;;;7.30;99.90;;;;;;5114874;28;19987;-70
2024/01/04 01:39:09;;;;;;;;;;;7.30;99.90;;;;;;5119921;28;19927;-70
2024/01/04 01:41:36;;;;;;;;;;;7.30;99.90;;;;;;5122978;28;19919;-70
2024/01/04 01:44:02;;;;;;;;;;;7.30;99.90;;;;;;5123345;28;19979;-70
2024/01/04 01:46:29;;;;;;;;;;;7.30;99.90;;;;;;5130720;28;20113;-70
2024/01/04 01:48:57;;;;;;;;;;;7.30;99.90;;;;;;5123722;28;19970;-70
2024/01/04 01:51:24;;;;;;;;;;;7.30;99.90;;;;;;5123982;28;19927;-70
2024/01/04 01:53:51;;;;;;;;;;;7.30;99.90;;;;;;5123080;28;19991;-70
2024/01/04 01:56:17;;;;;;;;;;;7.30;99.90;;;;;;5123373;28;19955;-70
2024/01/04 01:58:44;;;;;;;;;;;7.30;99.90;;;;;;5123291;28;19991;-70
2024/01/04 02:01:10;;;;;;;;;;;7.30;99.90;;;;;;5123673;28;19920;-70
2024/01/04 02:03:38;;;;;;;;;;;7.20;99.90;;;;;;5123032;28;19951;-70
2024/01/04 02:06:06;;;;;;;;;;;7.20;99.90;;;;;;5123461;28;19958;-70
2024/01/04 02:08:33;;;;;;;;;;;7.20;99.90;;;;;;5132314;27;19920;-70
2024/01/04 02:11:00;;;;;;;;;;;7.30;99.90;;;;;;5127205;28;19978;-70
2024/01/04 02:13:26;;;;;;;;;;;7.20;99.90;;;;;;5126270;28;19990;-69
2024/01/04 02:15:53;;;;;;;;;;;7.20;99.90;;;;;;5127308;28;19998;-70
2024/01/04 02:18:20;;;;;;;;;;;7.20;99.90;;;;;;5126816;28;20229;-70
2024/01/04 02:20:46;;;;;;;;;;;7.20;99.90;;;;;;5127252;28;19955;-70
2024/01/04 02:23:17;;;;;;;;;;;7.10;99.90;;;;;;5126703;28;20107;-70
2024/01/04 02:25:44;;;;;;;;;;;7.10;99.90;;;;;;5118782;28;19920;-70
2024/01/04 02:28:11;;;;;;;;;;;7.10;99.90;;;;;;5121921;28;19966;-70
2024/01/04 02:30:37;;;;;;;;;;;7.10;99.90;;;;;;5107411;28;19920;-70
2024/01/04 02:33:04;;;;;;;;;;;7.10;99.90;;;;;;5106040;28;19926;-70
2024/01/04 02:35:31;;;;;;;;;;;7.10;99.90;;;;;;5107035;28;19983;-70
2024/01/04 02:37:57;;;;;;;;;;;7.10;99.90;;;;;;5125431;28;19926;-70
2024/01/04 02:40:25;;;;;;;;;;;7.10;99.90;;;;;;5125740;28;19951;-70
2024/01/04 02:42:52;;;;;;;;;;;7.10;99.90;;;;;;5126368;28;20200;-70
2024/01/04 02:45:18;;;;;;;;;;;7.10;99.90;;;;;;5125965;28;19919;-70
2024/01/04 02:47:45;;;;;;;;;;;7.10;99.90;;;;;;5126369;28;20209;-70
2024/01/04 02:50:13;;;;;;;;;;;7.10;99.90;;;;;;5126616;28;19920;-70
2024/01/04 02:52:39;;;;;;;;;;;7.00;99.90;;;;;;5126189;28;20232;-70
2024/01/04 02:55:06;;;;;;;;;;;7.00;99.90;;;;;;5125708;28;20233;-70
2024/01/04 02:57:34;;;;;;;;;;;7.00;99.90;;;;;;5126562;28;19979;-70
2024/01/04 03:00:01;;;;;;;;;;;6.90;99.90;;;;;;5129355;27;19962;-70
2024/01/04 03:02:27;;;;;;;;;;;6.90;99.90;;;;;;5126431;28;19983;-70
2024/01/04 03:04:54;;;;;;;;;;;6.80;99.90;;;;;;5125935;28;19919;-70
2024/01/04 03:07:20;;;;;;;;;;;6.80;99.90;;;;;;5138056;27;19920;-70
2024/01/04 03:09:48;;;;;;;;;;;6.80;99.90;;;;;;5125615;28;19958;-70
2024/01/04 03:12:15;;;;;;;;;;;6.80;99.90;;;;;;5126242;28;19920;-70
2024/01/04 03:14:43;;;;;;;;;;;6.80;99.90;;;;;;5125357;28;20284;-70
2024/01/04 03:17:10;;;;;;;;;;;6.80;99.90;;;;;;5126139;28;19962;-70
2024/01/04 03:19:37;;;;;;;;;;;6.70;99.90;;;;;;5127934;27;19920;-70
2024/01/04 03:22:03;;;;;;;;;;;6.80;99.90;;;;;;5133836;27;19934;-70
2024/01/04 03:24:31;;;;;;;;;;;6.80;99.90;;;;;;5133519;27;19923;-70
2024/01/04 03:26:58;;;;;;;;;;;6.80;99.90;;;;;;5132909;27;19933;-70
2024/01/04 03:29:24;;;;;;;;;;;6.80;99.90;;;;;;5130845;27;20252;-70
2024/01/04 03:31:52;;;;;;;;;;;6.80;99.90;;;;;;5132404;27;19926;-72
2024/01/04 03:34:19;;;;;;;;;;;6.80;99.90;;;;;;5131502;27;19955;-70
2024/01/04 03:36:45;;;;;;;;;;;6.80;99.90;;;;;;5132735;27;19919;-70
2024/01/04 03:39:12;;;;;;;;;;;6.80;99.90;;;;;;5131221;27;20224;-70
2024/01/04 03:41:39;;;;;;;;;;;6.80;99.90;;;;;;5131500;27;20260;-70
2024/01/04 03:44:05;;;;;;;;;;;6.80;99.90;;;;;;5131063;27;19982;-69
2024/01/04 03:46:32;;;;;;;;;;;6.80;99.90;;;;;;5130403;27;20143;-70
2024/01/04 03:49:00;;;;;;;;;;;6.80;99.90;;;;;;5133604;27;19991;-70
2024/01/04 03:51:27;;;;;;;;;;;6.80;99.90;;;;;;5133564;27;19947;-70
2024/01/04 03:53:53;;;;;;;;;;;6.70;99.90;;;;;;5132054;27;20179;-71
2024/01/04 03:56:20;;;;;;;;;;;6.70;99.90;;;;;;5133891;27;20102;-70
2024/01/04 03:58:47;;;;;;;;;;;6.70;99.90;;;;;;5131920;27;19953;-71
2024/01/04 04:01:13;;;;;;;;;;;6.70;99.90;;;;;;5131468;27;19934;-71
2024/01/04 04:03:40;;;;;;;;;;;6.70;99.90;;;;;;5130205;27;19983;-70
2024/01/04 04:06:08;;;;;;;;;;;6.70;99.90;;;;;;5136570;27;19919;-70
2024/01/04 04:08:35;;;;;;;;;;;6.70;99.90;;;;;;5127928;27;19919;-70
2024/01/04 04:11:01;;;;;;;;;;;6.70;99.90;;;;;;5124032;27;19926;-70
2024/01/04 04:13:28;;;;;;;;;;;6.70;99.90;;;;;;5125714;27;19927;-71
2024/01/04 04:15:54;;;;;;;;;;;6.60;99.90;;;;;;5126058;27;20994;-70
2024/01/04 04:18:21;;;;;;;;;;;6.60;99.90;;;;;;5129354;27;19926;-70
2024/01/04 04:20:48;;;;;;;;;;;6.60;99.90;;;;;;5124777;28;20165;-70
2024/01/04 04:23:16;;;;;;;;;;;6.60;99.90;;;;;;5128455;27;19919;-70
2024/01/04 04:25:42;;;;;;;;;;;6.50;99.90;;;;;;5117312;27;19970;-70
2024/01/04 04:28:09;;;;;;;;;;;6.50;99.90;;;;;;5121108;28;19927;-70
2024/01/04 04:30:35;;;;;;;;;;;6.50;99.90;;;;;;5124827;27;19975;-70
2024/01/04 04:33:02;;;;;;;;;;;6.50;99.90;;;;;;5115284;28;19955;-70
2024/01/04 04:35:29;;;;;;;;;;;6.50;99.90;;;;;;5121330;28;19932;-70
2024/01/04 04:37:55;;;;;;;;;;;6.50;99.90;;;;;;5120749;28;19926;-69
2024/01/04 04:40:23;;;;;;;;;;;6.40;99.90;;;;;;5127663;27;20256;-70
2024/01/04 04:42:50;;;;;;;;;;;6.40;99.90;;;;;;5128297;27;19991;-70
2024/01/04 04:45:16;;;;;;;;;;;6.50;99.90;;;;;;5126667;27;19982;-70
2024/01/04 04:47:43;;;;;;;;;;;6.50;99.90;;;;;;5126106;27;19920;-70
2024/01/04 04:50:10;;;;;;;;;;;6.50;99.90;;;;;;5128055;27;19965;-69
2024/01/04 04:52:36;;;;;;;;;;;6.50;99.90;;;;;;5127331;27;19954;-69
2024/01/04 04:55:03;;;;;;;;;;;6.50;99.90;;;;;;5128840;27;19920;-70
2024/01/04 04:57:30;;;;;;;;;;;6.50;99.90;;;;;;5127881;27;20205;-70
2024/01/04 04:59:57;;;;;;;;;;;6.50;99.90;;;;;;5131160;27;19983;-70
2024/01/04 05:02:24;;;;;;;;;;;6.40;99.90;;;;;;5131207;27;19919;-70
2024/01/04 05:04:50;;;;;;;;;;;6.50;99.90;;;;;;5125263;27;20328;-70
2024/01/04 05:07:17;;;;;;;;;;;6.40;99.90;;;;;;5126878;27;19983;-70
2024/01/04 05:09:44;;;;;;;;;;;6.50;99.90;;;;;;5129770;28;19982;-70
2024/01/04 05:12:10;;;;;;;;;;;6.50;99.90;;;;;;5124359;28;19951;-70
2024/01/04 05:14:38;;;;;;;;;;;6.50;99.90;;;;;;5124339;28;19947;-70
2024/01/04 05:17:05;;;;;;;;;;;6.50;99.90;;;;;;5127671;28;19951;-70
2024/01/04 05:19:31;;;;;;;;;;;6.50;99.90;;;;;;5127234;28;19988;-70
2024/01/04 05:21:58;;;;;;;;;;;6.50;99.90;;;;;;5130891;28;19926;-70
2024/01/04 05:24:25;;;;;;;;;;;6.60;99.90;;;;;;5125404;28;20186;-70
2024/01/04 05:26:51;;;;;;;;;;;6.60;99.90;;;;;;5130833;28;19920;-70
2024/01/04 05:29:18;;;;;;;;;;;6.60;99.90;;;;;;5126036;28;19947;-69
2024/01/04 05:31:46;;;;;;;;;;;6.60;99.90;;;;;;5122138;28;19920;-70
2024/01/04 05:34:12;;;;;;;;;;;6.60;99.90;;;;;;5122866;28;19979;-70
2024/01/04 05:36:39;;;;;;;;;;;6.60;99.90;;;;;;5124494;28;20122;-70
2024/01/04 05:39:06;;;;;;;;;;;6.70;99.90;;;;;;5123679;28;19919;-69
2024/01/04 05:41:32;;;;;;;;;;;6.70;99.90;;;;;;5131586;27;20257;-69
2024/01/04 05:43:59;;;;;;;;;;;6.70;99.90;;;;;;5133477;27;19919;-70
2024/01/04 05:46:26;;;;;;;;;;;6.70;99.90;;;;;;5130944;27;21148;-70
2024/01/04 05:48:54;;;;;;;;;;;6.70;99.90;;;;;;5133109;27;20172;-70
2024/01/04 05:51:20;;;;;;;;;;;6.70;99.90;;;;;;5135567;27;19923;-70
2024/01/04 05:53:47;;;;;;;;;;;6.70;99.90;;;;;;5134524;27;20160;-70
2024/01/04 05:56:14;;;;;;;;;;;6.70;99.90;;;;;;5135360;27;19986;-71
2024/01/04 05:58:40;;;;;;;;;;;6.70;99.90;;;;;;5132132;27;19919;-71
2024/01/04 06:01:08;;;;;;;;;;;6.70;99.90;;;;;;5136109;27;19919;-70
2024/01/04 06:03:34;;;;;;;;;;;6.70;99.90;;;;;;5133949;27;19919;-71
2024/01/04 06:06:02;;;;;;;;;;;6.70;99.90;;;;;;5136806;27;20094;-71
2024/01/04 06:08:29;;;;;;;;;;;6.70;99.90;;;;;;5137118;27;20002;-69
2024/01/04 06:10:56;;;;;;;;;;;6.70;99.90;;;;;;5133791;27;19959;-70
2024/01/04 06:13:26;;;;;;;;;;;6.80;99.90;;;;;;5133366;27;19928;-71
2024/01/04 06:15:52;;;;;;;;;;;6.70;99.90;;;;;;5136730;27;19968;-72
2024/01/04 06:18:19;;;;;;;;;;;6.70;99.90;;;;;;5135722;27;19946;-70
2024/01/04 06:20:45;;;;;;;;;;;6.70;99.90;;;;;;5132683;27;19986;-70
2024/01/04 06:23:13;;;;;;;;;;;6.70;99.90;;;;;;5136080;27;19920;-73
2024/01/04 06:25:40;;;;;;;;;;;6.70;99.90;;;;;;5133845;27;20165;-70
2024/01/04 06:28:07;;;;;;;;;;;6.70;99.90;;;;;;5135374;27;19926;-70
2024/01/04 06:30:35;;;;;;;;;;;6.70;99.90;;;;;;5136297;27;19965;-70
2024/01/04 06:33:02;;;;;;;;;;;6.70;99.90;;;;;;5136063;27;19932;-72
2024/01/04 06:35:29;;;;;;;;;;;6.70;99.90;;;;;;5134319;27;19991;-74
2024/01/04 06:37:55;;;;;;;;;;;6.70;99.90;;;;;;5132014;27;20231;-71
2024/01/04 06:40:23;;;;;;;;;;;6.70;99.90;;;;;;5136361;27;19923;-70
2024/01/04 06:42:55;;;;;;;;;;;6.70;99.90;;;;;;5134806;27;19950;-71
2024/01/04 06:45:21;;;;;;;;;;;6.70;99.90;;;;;;5133509;27;19965;-70
2024/01/04 06:47:48;;;;;;;;;;;6.70;99.90;;;;;;5133789;27;19983;-70
2024/01/04 06:50:15;;;;;;;;;;;6.70;99.90;;;;;;5134357;27;19919;-71
2024/01/04 06:52:41;;;;;;;;;;;6.70;99.90;;;;;;5134609;27;19919;-70
2024/01/04 06:55:10;;;;;;;;;;;6.70;99.90;;;;;;5133980;27;19999;-70
2024/01/04 06:57:37;;;;;;;;;;;6.70;99.90;;;;;;5135844;27;19919;-70
2024/01/04 07:00:05;;;;;;;;;;;6.70;99.90;;;;;;5134728;27;20002;-71
2024/01/04 07:02:34;;;;;;;;;;;6.70;99.90;;;;;;5134566;27;19931;-70
2024/01/04 07:05:03;;;;;;;;;;;6.70;99.90;;;;;;5121778;27;19920;-70
2024/01/04 07:07:30;;;;;;;;;;;6.70;99.90;;;;;;5133677;27;19939;-70
2024/01/04 07:09:56;;;;;;;;;;;6.70;99.90;;;;;;5126282;28;20213;-70
2024/01/04 07:12:23;;;;;;;;;;;6.70;99.90;;;;;;5133727;27;19930;-70
2024/01/04 07:14:51;;;;;;;;;;;6.70;99.90;;;;;;5126599;27;19982;-70
2024/01/04 07:17:18;;;;;;;;;;;6.70;99.90;;;;;;5131438;27;19955;-70
2024/01/04 07:19:44;;;;;;;;;;;6.70;99.90;;;;;;5132030;27;19962;-70
2024/01/04 07:22:11;;;;;;;;;;;6.70;99.90;;;;;;5129288;27;19986;-71
2024/01/04 07:24:38;;;;;;;;;;;6.70;99.90;;;;;;5130769;27;20169;-70
2024/01/04 07:27:04;;;;;;;;;;;6.60;99.90;;;;;;5131132;27;19926;-71
2024/01/04 07:29:31;;;;;;;;;;;6.60;99.90;;;;;;5131537;27;19979;-70
2024/01/04 07:31:59;;;;;;;;;;;6.60;99.90;;;;;;5126816;27;19951;-70
2024/01/04 07:34:26;;;;;;;;;;;6.60;99.90;;;;;;5129648;27;19920;-70
2024/01/04 07:36:52;;;;;;;;;;;6.60;99.90;;;;;;5129581;27;20003;-70
2024/01/04 07:39:19;;;;;;;;;;;6.70;99.90;;;;;;5130228;27;19926;-69
2024/01/04 07:41:46;;;;;;;;;;;6.60;99.90;;;;;;5132649;27;19920;-70
2024/01/04 07:44:12;;;;;;;;;;;6.70;99.90;;;;;;5131297;27;20253;-69
2024/01/04 07:46:39;;;;;;;;;;;6.70;99.90;;;;;;5133880;27;19924;-70
2024/01/04 07:49:07;;;;;;;;;;;6.70;99.90;;;;;;5133795;27;19919;-70
2024/01/04 07:51:34;;;;;;;;;;;6.60;99.90;;;;;;5135503;27;19919;-70
2024/01/04 07:54:00;;;;;;;;;;;6.60;99.90;;;;;;5128847;27;20157;-70
2024/01/04 07:56:27;;;;;;;;;;;6.60;99.90;;;;;;5123876;27;19986;-70
2024/01/04 07:58:54;;;;;;;;;;;6.60;99.90;;;;;;5132849;27;19983;-70
2024/01/04 08:01:20;;;;;;;;;;;6.60;99.90;;;;;;5133032;27;20221;-71
2024/01/04 08:03:47;;;;;;;;;;;6.60;99.90;;;;;;5129244;27;19920;-70
2024/01/04 08:06:15;;;;;;;;;;;6.60;99.90;;;;;;5132216;27;20927;-70
2024/01/04 08:08:42;;;;;;;;;;;6.60;99.90;;;;;;5133128;27;19982;-70
2024/01/04 08:11:09;;;;;;;;;;;6.60;99.90;;;;;;5133677;27;20288;-70
2024/01/04 08:13:36;;;;;;;;;;;6.60;99.90;;;;;;5134288;27;19991;-71
2024/01/04 08:16:03;;;;;;;;;;;6.60;99.90;;;;;;5129018;27;19959;-70
2024/01/04 08:18:31;;;;;;;;;;;6.60;99.90;;;;;;5133470;27;19919;-69
2024/01/04 08:20:57;;;;;;;;;;;6.50;99.90;;;;;;5127863;27;19951;-69
2024/01/04 08:23:25;;;;;;;;;;;6.50;99.90;;;;;;5124398;28;19963;-69
2024/01/04 08:25:53;;;;;;;;;;;6.50;99.90;;;;;;5130452;27;20176;-70
2024/01/04 08:28:19;;;;;;;;;;;6.50;99.90;;;;;;5133787;27;19919;-70
2024/01/04 08:30:46;;;;;;;;;;;6.60;99.90;;;;;;5133041;27;19941;-70
2024/01/04 08:33:12;;;;;;;;;;;6.50;99.90;;;;;;5136814;27;19951;-69
2024/01/04 08:35:39;;;;;;;;;;;6.50;99.90;;;;;;5128562;27;19919;-73
2024/01/04 08:38:06;;;;;;;;;;;6.50;99.90;;;;;;5137120;27;19920;-69
2024/01/04 08:40:36;;;;;;;;;;;6.50;99.90;;;;;;5135424;27;19983;-69
2024/01/04 08:43:03;;;;;;;;;;;6.50;99.90;;;;;;5116668;28;19958;-70
2024/01/04 08:45:30;;;;;;;;;;;6.50;99.90;;;;;;5123871;28;19979;-70
2024/01/04 08:47:56;;;;;;;;;;;6.50;99.90;;;;;;5124296;28;19987;-69
2024/01/04 08:50:23;;;;;;;;;;;6.50;99.90;;;;;;5123968;28;19920;-69
2024/01/04 08:52:49;;;;;;;;;;;6.50;99.90;;;;;;5124266;28;19981;-69
2024/01/04 08:55:18;;;;;;;;;;;6.50;99.90;;;;;;5126202;27;19919;-68
2024/01/04 08:57:46;;;;;;;;;;;6.60;99.90;;;;;;5124074;28;19919;-69
2024/01/04 09:00:14;;;;;;;;;;;6.60;99.90;;;;;;5124149;28;19951;-70
2024/01/04 09:02:41;;;;;;;;;;;6.50;99.90;;;;;;5123637;28;20213;-70
2024/01/04 09:05:08;;;;;;;;;;;6.60;99.90;;;;;;5123715;28;19983;-70
2024/01/04 09:07:35;;;;;;;;;;;6.60;99.90;;;;;;5124044;28;19926;-69
2024/01/04 09:10:01;;;;;;;;;;;6.60;99.90;;;;;;5123701;28;20218;-70
2024/01/04 09:12:28;;;;;;;;;;;6.60;99.90;;;;;;5123875;28;19987;-72
2024/01/04 09:14:56;;;;;;;;;;;6.60;99.90;;;;;;5123195;28;19955;-71
2024/01/04 09:17:22;;;;;;;;;;;6.60;99.90;;;;;;5126471;28;19955;-68
2024/01/04 09:19:50;;;;;;;;;;;6.60;99.90;;;;;;5128138;28;19920;-70
2024/01/04 09:22:17;;;;;;;;;;;6.60;99.90;;;;;;5128264;28;19919;-69
2024/01/04 09:24:43;;;;;;;;;;;6.60;99.90;;;;;;5127761;28;19920;-70
2024/01/04 09:27:12;;;;;;;;;;;6.60;99.90;;;;;;5128045;28;19984;-70
2024/01/04 09:29:38;;;;;;;;;;;6.60;99.90;;;;;;5126904;28;19955;-69
2024/01/04 09:32:07;;;;;;;;;;;6.60;99.90;;;;;;5127490;28;19978;-70
2024/01/04 09:34:33;;;;;;;;;;;6.70;99.90;;;;;;5127361;28;19954;-70
2024/01/04 09:37:00;;;;;;;;;;;6.70;99.90;;;;;;5127889;28;19991;-70
2024/01/04 09:39:27;;;;;;;;;;;6.60;99.90;;;;;;5127566;28;20210;-70
2024/01/04 09:41:56;;;;;;;;;;;6.60;99.90;;;;;;5127463;28;19919;-70
2024/01/04 09:44:24;;;;;;;;;;;6.50;99.90;;;;;;5128886;27;20201;-69
2024/01/04 09:46:54;;;;;;;;;;;6.50;99.90;;;;;;5127700;28;19920;-70
2024/01/04 09:49:22;;;;;;;;;;;6.50;99.90;;;;;;5127642;28;19919;-70
2024/01/04 09:51:48;;;;;;;;;;;6.50;99.90;;;;;;5127463;28;19920;-70
2024/01/04 09:54:17;;;;;;;;;;;6.40;99.90;;;;;;5127174;28;19942;-70
2024/01/04 09:56:46;;;;;;;;;;;6.40;99.90;;;;;;5127708;28;20157;-70
2024/01/04 09:59:13;;;;;;;;;;;6.40;99.90;;;;;;5127194;28;19982;-70
2024/01/04 10:01:40;;;;;;;;;;;6.40;99.90;;;;;;5127673;28;19920;-69
2024/01/04 10:04:07;;;;;;;;;;;6.30;99.90;;;;;;5127052;28;19920;-70
2024/01/04 10:06:37;;;;;;;;;;;6.30;99.90;;;;;;5127515;28;19923;-70
2024/01/04 10:09:09;;;;;;;;;;;6.30;99.90;;;;;;5119676;28;19920;-71
2024/01/04 10:11:38;;;;;;;;;;;6.30;99.90;;;;;;5127213;28;19959;-70
2024/01/04 10:14:05;;;;;;;;;;;6.30;99.90;;;;;;5126637;28;19955;-70
2024/01/04 10:16:33;;;;;;;;;;;6.30;99.90;;;;;;5127240;28;19991;-70
2024/01/04 10:19:00;;;;;;;;;;;6.30;99.90;;;;;;5126682;28;20186;-69
2024/01/04 10:21:31;;;;;;;;;;;6.30;99.90;;;;;;5127078;28;19962;-70
2024/01/04 10:23:59;;;;;;;;;;;6.40;99.90;;;;;;5126664;28;19983;-69
2024/01/04 10:26:27;;;;;;;;;;;6.40;99.90;;;;;;5126661;28;19962;-69
2024/01/04 10:28:55;;;;;;;;;;;6.40;99.90;;;;;;5128561;27;19962;-68
2024/01/04 10:31:21;;;;;;;;;;;6.40;99.90;;;;;;5133959;27;19995;-69
2024/01/04 10:33:55;;;;;;;;;;;6.40;99.90;;;;;;5132489;27;19941;-68
2024/01/04 10:36:22;;;;;;;;;;;6.50;99.90;;;;;;5134789;27;19962;-68
2024/01/04 10:38:49;;;;;;;;;;;6.50;99.90;;;;;;5124925;27;19982;-69
2024/01/04 10:41:18;;;;;;;;;;;6.50;99.90;;;;;;5133603;27;19961;-68
2024/01/04 10:43:45;;;;;;;;;;;6.50;99.90;;;;;;5134291;27;20098;-67
2024/01/04 10:46:12;;;;;;;;;;;6.50;99.90;;;;;;5133451;27;19955;-70
2024/01/04 10:48:39;;;;;;;;;;;6.60;99.90;;;;;;5138145;27;19982;-69
2024/01/04 10:51:09;;;;;;;;;;;6.60;99.90;;;;;;5131295;27;19960;-69
2024/01/04 10:53:36;;;;;;;;;;;6.60;99.90;;;;;;5128761;27;19919;-70
2024/01/04 10:56:04;;;;;;;;;;;6.60;99.90;;;;;;5125690;28;19983;-70
2024/01/04 10:58:32;;;;;;;;;;;6.70;99.90;;;;;;5126111;28;19955;-71
2024/01/04 11:00:59;;;;;;;;;;;6.70;99.90;;;;;;5126357;28;19962;-70
2024/01/04 11:03:29;;;;;;;;;;;6.80;99.90;;;;;;5125800;28;20156;-70
2024/01/04 11:05:58;;;;;;;;;;;6.80;99.90;;;;;;5125942;28;20272;-69
2024/01/04 11:08:25;;;;;;;;;;;6.80;99.90;;;;;;5125810;28;19962;-68
2024/01/04 11:10:52;;;;;;;;;;;6.80;99.90;;;;;;5127224;27;19920;-70
2024/01/04 11:13:19;;;;;;;;;;;6.80;99.90;;;;;;5128323;27;19995;-70
2024/01/04 11:15:47;;;;;;;;;;;6.90;99.90;;;;;;5126000;28;19979;-69
2024/01/04 11:18:24;;;;;;;;;;;6.90;99.90;;;;;;5125433;28;19955;-69
2024/01/04 11:20:59;;;;;;;;;;;6.90;99.90;;;;;;5125609;28;20210;-68
2024/01/04 11:23:37;;;;;;;;;;;6.90;99.90;;;;;;5125563;28;19928;-70
2024/01/04 11:26:22;;;;;;;;;;;6.90;99.90;;;;;;5123799;28;19919;-70
2024/01/04 11:28:49;;;;;;;;;;;6.90;99.90;;;;;;5106819;28;19956;-69
2024/01/04 11:31:17;;;;;;;;;;;6.90;99.90;;;;;;5124785;28;19962;-69
2024/01/04 11:33:44;;;;;;;;;;;6.80;99.90;;;;;;5123576;28;19955;-70
2024/01/04 11:36:16;;;;;;;;;;;6.80;99.90;;;;;;5124694;28;20192;-70
2024/01/04 11:38:45;;;;;;;;;;;6.90;99.90;;;;;;5131562;27;19950;-69
2024/01/04 11:41:11;;;;;;;;;;;6.90;99.90;;;;;;5135842;27;19959;-69
2024/01/04 11:43:38;;;;;;;;;;;6.80;99.90;;;;;;5131389;27;20247;-70
2024/01/04 11:46:18;;;;;;;;;;;6.90;99.90;;;;;;5125996;27;20205;-70
2024/01/04 11:48:53;;;;;;;;;;;6.90;99.90;;;;;;5127045;27;20236;-68
2024/01/04 11:51:29;;;;;;;;;;;6.90;99.90;;;;;;5130889;27;19962;-70
2024/01/04 11:53:56;;;;;;;;;;;7.00;99.90;;;;;;5138300;27;19974;-70
2024/01/04 11:56:24;;;;;;;;;;;7.00;99.90;;;;;;5130378;27;19920;-70
2024/01/04 11:58:50;;;;;;;;;;;7.00;99.90;;;;;;5133250;27;20105;-70
2024/01/04 12:01:22;;;;;;;;;;;7.00;99.90;;;;;;5129526;27;20271;-69
2024/01/04 12:03:49;;;;;;;;;;;7.00;99.90;;;;;;5127446;27;20130;-69
2024/01/04 12:06:16;;;;;;;;;;;7.00;99.90;;;;;;5127164;27;19924;-69
2024/01/04 12:08:43;;;;;;;;;;;7.00;99.90;;;;;;5127321;27;19927;-70
2024/01/04 12:11:10;;;;;;;;;;;7.00;99.90;;;;;;5125170;27;19927;-69
2024/01/04 12:13:36;;;;;;;;;;;7.00;99.90;;;;;;5130445;27;20121;-70
2024/01/04 12:16:05;;;;;;;;;;;7.00;99.90;;;;;;5135557;27;19919;-70
2024/01/04 12:18:33;;;;;;;;;;;7.00;99.90;;;;;;5136244;27;19920;-70
2024/01/04 12:21:03;;;;;;;;;;;7.00;99.90;;;;;;5134730;27;19954;-70
2024/01/04 12:23:29;;;;;;;;;;;7.00;99.90;;;;;;5130257;27;20209;-70
2024/01/04 12:25:56;;;;;;;;;;;7.10;99.90;;;;;;5114798;27;19927;-70
2024/01/04 12:28:24;;;;;;;;;;;7.10;99.90;;;;;;5110541;28;20181;-68
2024/01/04 12:30:51;;;;;;;;;;;7.10;99.90;;;;;;5125458;27;19926;-69
2024/01/04 12:33:17;;;;;;;;;;;7.10;99.90;;;;;;5133189;27;19962;-68
2024/01/04 12:35:45;;;;;;;;;;;7.10;99.90;;;;;;5134702;27;19954;-68
2024/01/04 12:38:12;;;;;;;;;;;7.10;99.90;;;;;;5135239;27;20150;-69
2024/01/04 12:40:40;;;;;;;;;;;7.10;99.90;;;;;;5123685;27;19926;-68
2024/01/04 12:43:08;;;;;;;;;;;7.10;99.90;;;;;;5132273;27;19961;-68
2024/01/04 12:45:34;;;;;;;;;;;7.10;99.90;;;;;;5130178;27;19920;-67
2024/01/04 12:48:01;;;;;;;;;;;7.10;99.90;;;;;;5132002;27;19919;-72
2024/01/04 12:50:29;;;;;;;;;;;7.20;99.90;;;;;;5130269;27;19961;-70
2024/01/04 12:52:57;;;;;;;;;;;7.20;99.90;;;;;;5129998;27;19955;-70
2024/01/04 12:55:24;;;;;;;;;;;7.20;99.90;;;;;;5128342;27;19919;-71
2024/01/04 12:57:51;;;;;;;;;;;7.20;99.90;;;;;;5125248;28;19959;-72
2024/01/04 13:00:18;;;;;;;;;;;7.20;99.90;;;;;;5125316;27;19927;-70
2024/01/04 13:02:45;;;;;;;;;;;7.20;99.90;;;;;;5127372;27;19958;-70
2024/01/04 13:05:12;;;;;;;;;;;7.20;99.90;;;;;;5128062;27;19920;-70
2024/01/04 13:07:39;;;;;;;;;;;7.10;99.90;;;;;;5135525;27;19923;-70
2024/01/04 13:10:08;;;;;;;;;;;7.10;99.90;;;;;;5133303;27;19947;-70
2024/01/04 13:12:35;;;;;;;;;;;7.00;99.90;;;;;;5129896;27;19942;-70
2024/01/04 13:15:02;;;;;;;;;;;7.00;99.90;;;;;;5132934;27;19926;-68
2024/01/04 13:17:30;;;;;;;;;;;7.00;99.90;;;;;;5136701;28;19934;-70
2024/01/04 13:19:57;;;;;;;;;;;7.00;99.90;;;;;;5124317;28;19978;-69
2024/01/04 13:22:24;;;;;;;;;;;6.90;99.90;;;;;;5130633;28;19986;-70
2024/01/04 13:24:51;;;;;;;;;;;6.90;99.90;;;;;;5125672;28;19920;-70
2024/01/04 13:27:19;;;;;;;;;;;6.90;99.90;;;;;;5132756;28;19995;-70
2024/01/04 13:29:46;;;;;;;;;;;6.90;99.90;;;;;;5127129;28;19979;-68
2024/01/04 13:32:15;;;;;;;;;;;6.90;99.90;;;;;;5128451;28;19927;-70
2024/01/04 13:34:41;;;;;;;;;;;6.90;99.90;;;;;;5132182;28;20109;-69
2024/01/04 13:37:08;;;;;;;;;;;6.90;99.90;;;;;;5128616;28;19995;-69
2024/01/04 13:39:35;;;;;;;;;;;6.90;99.90;;;;;;5122871;28;19920;-70
2024/01/04 13:42:01;;;;;;;;;;;7.00;99.90;;;;;;5126730;28;19951;-68
2024/01/04 13:44:29;;;;;;;;;;;7.00;99.90;;;;;;5125502;28;19961;-68
2024/01/04 13:46:56;;;;;;;;;;;7.00;99.90;;;;;;5120774;28;20462;-69
2024/01/04 13:49:22;;;;;;;;;;;7.10;99.90;;;;;;5121556;28;19983;-70
2024/01/04 13:51:49;;;;;;;;;;;7.10;99.90;;;;;;5122611;28;19942;-70
2024/01/04 13:54:18;;;;;;;;;;;7.20;99.90;;;;;;5114911;28;19983;-70
2024/01/04 13:56:45;;;;;;;;;;;7.20;99.90;;;;;;5121273;28;20114;-69
2024/01/04 13:59:12;;;;;;;;;;;7.20;99.90;;;;;;5121106;28;19955;-68
2024/01/04 14:01:40;;;;;;;;;;;7.20;99.90;;;;;;5122082;28;20092;-69
2024/01/04 14:04:07;;;;;;;;;;;7.30;99.90;;;;;;5123781;28;20183;-69
2024/01/04 14:06:34;;;;;;;;;;;7.30;99.90;;;;;;5126375;28;19983;-68
2024/01/04 14:09:00;;;;;;;;;;;7.30;99.90;;;;;;5126087;28;19926;-70
2024/01/04 14:11:27;;;;;;;;;;;7.30;99.90;;;;;;5126367;28;19924;-70
2024/01/04 14:13:54;;;;;;;;;;;7.30;99.90;;;;;;5125494;28;19928;-70
2024/01/04 14:16:20;;;;;;;;;;;7.20;99.90;;;;;;5126254;28;20168;-68
2024/01/04 14:18:48;;;;;;;;;;;7.20;99.90;;;;;;5125639;28;19920;-70
2024/01/04 14:21:15;;;;;;;;;;;7.10;99.90;;;;;;5126205;28;19962;-70
2024/01/04 14:23:41;;;;;;;;;;;7.10;99.90;;;;;;5123812;28;19919;-70
2024/01/04 14:26:08;;;;;;;;;;;7.10;99.90;;;;;;5128937;27;19983;-68
2024/01/04 14:28:37;;;;;;;;;;;7.20;99.90;;;;;;5125705;28;19955;-69
2024/01/04 14:31:05;;;;;;;;;;;7.20;99.90;;;;;;5128109;27;19919;-70